EST,Max TemperatureF,Mean TemperatureF,Min TemperatureF,Max Dew PointF,MeanDew PointF,Min DewpointF,Max Humidity, Mean Humidity, Min Humidity, Max Sea Level PressureIn, Mean Sea Level PressureIn, Min Sea Level PressureIn, Max VisibilityMiles, Mean VisibilityMiles, Min VisibilityMiles, Max Wind SpeedMPH, Mean Wind SpeedMPH, Max Gust SpeedMPH,PrecipitationIn, CloudCover, Events, WindDirDegrees
2012-12-1,69,55,40,48,44,40,96,71,45,30.39,30.32,30.29,10,10,8,10,3,15,0.00,1,,202
2012-12-2,70,58,46,52,49,44,93,71,49,30.37,30.30,30.24,10,10,10,15,5,22,0.00,3,,221
2012-12-3,73,60,46,51,48,46,100,71,41,30.30,30.25,30.21,10,10,3,14,6,17,0.00,1,,217
2012-12-4,73,62,51,54,51,49,89,67,44,30.30,30.23,30.17,10,10,9,17,7,23,0.00,3,,218
2012-12-5,67,61,55,59,53,43,86,72,57,30.17,30.14,30.09,10,10,10,13,6,15,0.03,6,Rain,243
2012-12-6,57,53,49,43,36,30,66,54,41,30.25,30.20,30.16,10,10,10,13,8,15,T,8,,46
2012-12-7,60,52,44,46,41,36,93,75,57,30.17,30.07,30.00,10,10,7,9,3,12,T,6,,47
2012-12-8,70,57,43,57,51,42,100,80,59,30.04,30.02,29.96,10,6,1,15,6,22,0.02,3,Rain,232
2012-12-9,70,62,54,59,56,53,100,83,66,30.10,30.04,29.98,10,5,0,14,5,18,T,7,Fog,206
2012-12-10,66,61,55,61,57,55,100,87,73,29.98,29.83,29.69,10,6,0,18,10,26,0.24,7,Fog-Rain,220
2012-12-11,60,51,42,57,41,33,90,70,50,30.12,29.92,29.72,10,10,10,14,5,21,0.00,1,,358
2012-12-12,49,46,43,38,34,31,71,65,58,30.27,30.21,30.13,10,10,10,18,11,24,T,5,Rain,36
2012-12-13,54,45,35,31,26,21,59,44,28,30.37,30.31,30.24,10,10,10,16,8,21,0.00,5,,35
2012-12-14,59,44,28,30,27,23,85,58,30,30.38,30.30,30.23,10,10,10,7,2,9,0.00,0,,119
2012-12-15,60,49,37,39,34,30,85,61,37,30.24,30.16,30.06,10,10,10,10,3,13,0.00,3,,176
2012-12-16,56,53,50,54,47,39,100,82,63,30.04,29.98,29.89,10,6,1,9,3,14,0.71,8,Rain,213
2012-12-17,57,55,52,55,53,51,100,93,86,29.87,29.79,29.67,10,8,1,15,8,21,0.14,8,Rain,210
2012-12-18,62,53,44,54,39,27,100,66,32,29.95,29.79,29.67,10,10,10,14,6,18,0.00,3,,247
2012-12-19,68,54,39,42,35,28,74,54,34,30.07,30.01,29.94,10,10,10,14,5,18,0.00,0,,230
2012-12-20,51,46,40,47,43,30,100,81,62,30.06,29.80,29.61,10,7,1,26,8,35,1.18,6,Rain,42
2012-12-21,48,40,32,29,22,17,70,52,34,29.94,29.80,29.69,10,10,10,28,14,37,0.00,2,,261
2012-12-22,56,42,27,20,14,7,63,40,16,30.13,30.06,29.95,10,10,10,15,6,26,0.00,0,,257
2012-12-23,58,43,28,34,23,14,78,53,28,30.15,30.08,30.02,10,10,10,13,4,15,0.00,1,,223
2012-12-24,49,46,42,47,41,33,100,78,56,30.01,29.93,29.88,10,4,0,10,6,14,0.87,8,Rain,207
2012-12-25,50,47,44,46,45,43,100,93,86,30.06,29.98,29.91,10,5,0,12,6,17,0.06,8,Fog-Rain,28
2012-12-26,49,42,35,48,42,29,100,83,65,29.90,29.65,29.48,10,7,2,28,13,36,2.34,7,Rain,23
2012-12-27,53,41,29,32,29,27,85,63,41,30.05,29.94,29.78,10,10,10,10,4,14,0.00,0,,275
2012-12-28,44,37,30,34,29,26,85,69,53,30.17,30.06,29.96,10,10,10,8,2,14,T,2,Rain,39
2012-12-29,57,46,34,43,34,23,100,74,48,30.06,29.84,29.74,10,8,3,16,7,22,0.22,7,Rain,302
2012-12-30,51,41,30,22,20,14,69,47,24,30.40,30.29,30.09,10,10,10,16,7,28,0.00,0,,306
2012-12-31,53,40,27,27,25,22,85,58,30,30.36,30.27,30.11,10,10,10,21,8,25,0.00,3,,220